Time;durP1;ratioP1;P1;durP2;ratioP2;P2;SDS_P1;SDS_P2;PMS_P1;PMS_P2;Temp;Humidity;BMP_temperature;BMP_pressure;BME280_temperature;BME280_humidity;BME280_pressure;Samples;Min_cycle;Max_cycle;Signal;HPM_P1;HPM_P2
2023/12/09 00:01:57;;;;;;;;;;;;;;;19.08;47.23;97124.95;621375;228;66666;-67
2023/12/09 00:04:24;;;;;;;;;;;;;;;19.11;47.22;97127.11;621431;228;64643;-68
2023/12/09 00:06:52;;;;;;;;;;;;;;;19.10;47.21;97120.19;621360;228;66882;-69
2023/12/09 00:09:19;;;;;;;;;;;;;;;19.10;47.23;97122.84;621393;228;66590;-69
2023/12/09 00:11:47;;;;;;;;;;;;;;;19.10;47.24;97122.84;621363;228;64557;-68
2023/12/09 00:14:14;;;;;;;;;;;;;;;19.10;47.25;97128.17;621352;228;66852;-68
2023/12/09 00:16:42;;;;;;;;;;;;;;;19.11;47.25;97126.31;621435;228;66826;-68
2023/12/09 00:19:11;;;;;;;;;;;;;;;19.11;47.25;97126.31;621378;228;64793;-69
2023/12/09 00:21:38;;;;;;;;;;;;;;;19.11;47.27;97126.31;621380;228;64188;-68
2023/12/09 00:24:06;;;;;;;;;;;;;;;19.10;47.31;97127.34;621396;228;66479;-67
2023/12/09 00:26:34;;;;;;;;;;;;;;;19.09;47.30;97126.55;621359;228;64966;-67
2023/12/09 00:29:01;;;;;;;;;;;;;;;19.09;47.35;97121.22;621384;228;66832;-67
2023/12/09 00:31:28;;;;;;;;;;;;;;;19.11;47.28;97124.44;621399;228;67048;-67
2023/12/09 00:33:56;;;;;;;;;;;;;;;19.09;47.34;97123.89;621351;228;64685;-67
2023/12/09 00:36:23;;;;;;;;;;;;;;;19.10;47.29;97132.67;622453;227;66717;-67
2023/12/09 00:38:51;;;;;;;;;;;;;;;19.10;47.30;97128.17;624887;227;64488;-67
2023/12/09 00:41:18;;;;;;;;;;;;;;;19.10;47.34;97132.67;624874;227;63557;-68
2023/12/09 00:43:46;;;;;;;;;;;;;;;19.10;47.37;97128.17;624930;227;66664;-68
2023/12/09 00:46:13;;;;;;;;;;;;;;;19.10;47.38;97128.17;624901;227;64527;-67
2023/12/09 00:48:41;;;;;;;;;;;;;;;19.11;47.40;97126.31;624908;227;62570;-67
2023/12/09 00:51:08;;;;;;;;;;;;;;;19.07;47.42;97121.50;624890;227;67433;-68
2023/12/09 00:53:36;;;;;;;;;;;;;;;19.08;47.38;97122.30;624869;227;66842;-67
2023/12/09 00:56:04;;;;;;;;;;;;;;;19.09;47.37;97126.55;624912;227;62586;-67
2023/12/09 00:58:31;;;;;;;;;;;;;;;19.09;47.38;97126.55;624876;227;68034;-67
2023/12/09 01:00:59;;;;;;;;;;;;;;;19.10;47.40;97125.52;624887;227;66760;-67
2023/12/09 01:03:26;;;;;;;;;;;;;;;19.10;47.38;97122.02;624883;227;64534;-69
2023/12/09 01:05:54;;;;;;;;;;;;;;;19.09;47.32;97121.22;624887;227;66931;-68
2023/12/09 01:08:21;;;;;;;;;;;;;;;19.09;47.35;97121.22;624929;227;66803;-68
2023/12/09 01:10:49;;;;;;;;;;;;;;;19.10;47.38;97128.17;624878;227;64553;-69
2023/12/09 01:13:16;;;;;;;;;;;;;;;19.10;47.33;97132.67;624918;227;66699;-68
2023/12/09 01:15:44;;;;;;;;;;;;;;;19.09;47.34;97126.55;624902;227;66809;-68
2023/12/09 01:18:11;;;;;;;;;;;;;;;19.10;47.38;97133.50;624876;227;64715;-70
2023/12/09 01:20:39;;;;;;;;;;;;;;;19.10;47.30;97138.83;624881;227;66731;-70
2023/12/09 01:23:07;;;;;;;;;;;;;;;19.11;47.28;97128.97;624871;227;66623;-69
2023/12/09 01:25:34;;;;;;;;;;;;;;;19.08;47.26;97132.95;624865;227;64811;-69
2023/12/09 01:28:02;;;;;;;;;;;;;;;19.09;47.32;97131.88;624891;227;66838;-70
2023/12/09 01:30:29;;;;;;;;;;;;;;;19.10;47.33;97124.69;624891;227;66618;-70
2023/12/09 01:32:57;;;;;;;;;;;;;;;19.09;47.40;97126.55;624927;227;62604;-70
2023/12/09 01:35:24;;;;;;;;;;;;;;;19.08;47.36;97124.95;624848;227;64518;-70
2023/12/09 01:37:52;;;;;;;;;;;;;;;19.06;47.38;97130.52;621665;227;64328;-70
2023/12/09 01:40:19;;;;;;;;;;;;;;;19.08;47.39;97124.95;621368;228;62579;-70
2023/12/09 01:42:47;;;;;;;;;;;;;;;19.08;47.38;97139.07;621361;228;66699;-70
2023/12/09 01:45:14;;;;;;;;;;;;;;;19.06;47.44;97133.19;621385;228;67012;-70
2023/12/09 01:47:42;;;;;;;;;;;;;;;19.07;47.41;97134.81;621390;228;64537;-70
2023/12/09 01:50:10;;;;;;;;;;;;;;;19.08;47.42;97135.61;621350;228;66797;-70
2023/12/09 01:52:37;;;;;;;;;;;;;;;19.10;47.42;97127.34;621297;228;66841;-70
2023/12/09 01:55:05;;;;;;;;;;;;;;;19.08;47.47;97132.95;621369;228;64744;-70
2023/12/09 01:57:33;;;;;;;;;;;;;;;19.07;47.37;97128.69;621438;227;64745;-70
2023/12/09 02:00:00;;;;;;;;;;;;;;;19.07;47.48;97123.36;621368;228;66725;-69
2023/12/09 02:02:28;;;;;;;;;;;;;;;19.08;47.44;97125.75;621408;227;62414;-69
2023/12/09 02:04:56;;;;;;;;;;;;;;;19.08;47.41;97122.30;621401;228;64487;-70
2023/12/09 02:07:23;;;;;;;;;;;;;;;19.08;47.52;97124.95;621400;228;64641;-70
2023/12/09 02:09:51;;;;;;;;;;;;;;;19.08;47.51;97124.95;621432;228;62364;-70
2023/12/09 02:12:29;;;;;;;;;;;;;;;19.08;47.50;97130.28;621396;228;65113;-70
2023/12/09 02:15:03;;;;;;;;;;;;;;;19.07;47.44;97124.16;621155;228;66716;-69
2023/12/09 02:17:32;;;;;;;;;;;;;;;19.10;47.50;97119.36;621323;228;64649;-68
2023/12/09 02:20:01;;;;;;;;;;;;;;;19.07;47.45;97121.50;621332;228;72290;-68
2023/12/09 02:22:28;;;;;;;;;;;;;;;19.08;47.51;97120.42;621389;228;66951;-68
2023/12/09 02:24:56;;;;;;;;;;;;;;;19.07;47.50;97116.17;621433;228;64710;-68
2023/12/09 02:27:25;;;;;;;;;;;;;;;19.08;47.48;97108.98;621376;228;66901;-68
2023/12/09 02:30:00;;;;;;;;;;;;;;;19.08;47.48;97106.31;621325;228;66874;-68
2023/12/09 02:32:29;;;;;;;;;;;;;;;19.07;47.54;97102.85;621253;228;64563;-67
2023/12/09 02:34:57;;;;;;;;;;;;;;;19.07;47.58;97110.05;621377;228;66734;-68
2023/12/09 02:37:26;;;;;;;;;;;;;;;19.08;47.54;97111.64;623965;227;64781;-68
2023/12/09 02:39:54;;;;;;;;;;;;;;;19.06;47.48;97106.55;624850;227;65007;-68
2023/12/09 02:42:22;;;;;;;;;;;;;;;19.07;47.45;97102.85;624902;227;64469;-68
2023/12/09 02:44:50;;;;;;;;;;;;;;;19.08;47.48;97101.78;624909;227;64739;-68
2023/12/09 02:47:17;;;;;;;;;;;;;;;19.06;47.45;97098.56;624891;227;62658;-68
2023/12/09 02:49:45;;;;;;;;;;;;;;;19.06;47.45;97100.43;624907;227;64617;-68
2023/12/09 02:52:12;;;;;;;;;;;;;;;19.06;47.48;97095.10;624980;227;64058;-68
2023/12/09 02:54:40;;;;;;;;;;;;;;;19.07;47.52;97096.73;624872;227;64812;-68
2023/12/09 02:57:07;;;;;;;;;;;;;;;19.08;47.55;97099.12;624905;227;66936;-68
2023/12/09 02:59:35;;;;;;;;;;;;;;;19.06;47.51;97093.23;624918;227;65604;-68
2023/12/09 03:02:02;;;;;;;;;;;;;;;19.06;47.52;97092.44;624942;227;64421;-68
2023/12/09 03:04:31;;;;;;;;;;;;;;;19.06;47.54;97098.56;624941;227;66722;-68
2023/12/09 03:06:58;;;;;;;;;;;;;;;19.06;47.52;97101.23;624914;227;64482;-68
2023/12/09 03:09:26;;;;;;;;;;;;;;;19.06;47.51;97095.90;624903;227;62563;-68
2023/12/09 03:11:53;;;;;;;;;;;;;;;19.09;47.62;97110.56;624895;227;64524;-68
2023/12/09 03:14:22;;;;;;;;;;;;;;;19.07;47.54;97108.17;624941;227;64562;-68
2023/12/09 03:16:50;;;;;;;;;;;;;;;19.08;47.55;97109.77;625001;227;63661;-68
2023/12/09 03:19:17;;;;;;;;;;;;;;;19.07;47.50;97110.05;624925;227;66211;-68
2023/12/09 03:21:44;;;;;;;;;;;;;;;19.06;47.54;97106.55;624894;227;66354;-68
2023/12/09 03:24:12;;;;;;;;;;;;;;;19.05;47.51;97106.83;624910;227;64361;-68
2023/12/09 03:26:39;;;;;;;;;;;;;;;19.06;47.54;97111.87;624912;227;66846;-68
2023/12/09 03:29:07;;;;;;;;;;;;;;;19.06;47.50;97111.87;624971;227;66472;-68
2023/12/09 03:31:34;;;;;;;;;;;;;;;19.07;47.45;97123.36;624934;227;64742;-68
2023/12/09 03:34:02;;;;;;;;;;;;;;;19.07;47.45;97112.70;624883;227;66669;-68
2023/12/09 03:36:29;;;;;;;;;;;;;;;19.06;47.43;97111.09;623671;227;66438;-68
2023/12/09 03:38:57;;;;;;;;;;;;;;;19.06;47.51;97109.22;621396;228;64729;-68
2023/12/09 03:41:24;;;;;;;;;;;;;;;19.05;47.45;97107.63;621456;228;66674;-68
2023/12/09 03:43:52;;;;;;;;;;;;;;;19.08;47.52;97114.30;621383;228;64615;-68
2023/12/09 03:46:19;;;;;;;;;;;;;;;19.05;47.48;97115.61;621390;228;62729;-68
2023/12/09 03:48:47;;;;;;;;;;;;;;;19.06;47.51;97116.41;621351;228;64578;-68
2023/12/09 03:51:14;;;;;;;;;;;;;;;19.06;47.52;97117.20;621380;228;64804;-68
2023/12/09 03:53:42;;;;;;;;;;;;;;;19.06;47.53;97111.87;621406;228;62704;-69
2023/12/09 03:56:14;;;;;;;;;;;;;;;19.07;47.56;97116.17;621428;226;64681;-70
2023/12/09 03:58:41;;;;;;;;;;;;;;;19.05;47.56;97120.14;621306;228;66809;-70
2023/12/09 04:01:09;;;;;;;;;;;;;;;19.05;47.54;97110.28;621351;228;62492;-70
2023/12/09 04:03:36;;;;;;;;;;;;;;;19.06;47.62;97111.09;621366;228;64232;-70
2023/12/09 04:06:05;;;;;;;;;;;;;;;19.06;47.57;97111.09;621432;228;64413;-70
2023/12/09 04:08:32;;;;;;;;;;;;;;;19.05;47.64;97104.16;621413;228;64713;-70
2023/12/09 04:11:00;;;;;;;;;;;;;;;19.05;47.58;97106.83;621399;228;67014;-69
2023/12/09 04:13:27;;;;;;;;;;;;;;;19.06;47.55;97108.42;621324;228;66971;-70
2023/12/09 04:15:55;;;;;;;;;;;;;;;19.06;47.64;97111.09;621375;228;64677;-70
2023/12/09 04:18:22;;;;;;;;;;;;;;;19.06;47.61;97113.75;621359;228;64261;-70
2023/12/09 04:20:50;;;;;;;;;;;;;;;19.06;47.63;97111.09;621427;228;64633;-70
2023/12/09 04:23:18;;;;;;;;;;;;;;;19.06;47.57;97111.09;621391;228;62451;-70
2023/12/09 04:25:46;;;;;;;;;;;;;;;19.06;47.62;97106.55;621400;228;66795;-69
2023/12/09 04:28:13;;;;;;;;;;;;;;;19.06;47.61;97103.09;621337;228;66833;-69
2023/12/09 04:30:41;;;;;;;;;;;;;;;19.05;47.63;97104.16;621414;228;64661;-69
2023/12/09 04:33:08;;;;;;;;;;;;;;;19.04;47.68;97108.70;621357;227;66662;-69
2023/12/09 04:35:36;;;;;;;;;;;;;;;19.05;47.62;97106.83;621439;228;66472;-69
2023/12/09 04:38:03;;;;;;;;;;;;;;;19.04;47.63;97106.03;621346;228;62645;-69
2023/12/09 04:40:31;;;;;;;;;;;;;;;19.04;47.63;97106.03;621370;228;64663;-68
2023/12/09 04:42:58;;;;;;;;;;;;;;;19.05;47.61;97110.28;621367;226;66807;-69
2023/12/09 04:45:26;;;;;;;;;;;;;;;19.05;47.63;97114.81;621368;228;64712;-68
2023/12/09 04:47:53;;;;;;;;;;;;;;;19.04;47.62;97107.86;621427;228;64667;-69
2023/12/09 04:50:21;;;;;;;;;;;;;;;19.04;47.63;97105.20;621381;228;63952;-68
2023/12/09 04:52:48;;;;;;;;;;;;;;;19.04;47.60;97108.70;621369;228;62715;-68
2023/12/09 04:55:16;;;;;;;;;;;;;;;19.05;47.64;97114.81;621385;228;64623;-68
2023/12/09 04:57:43;;;;;;;;;;;;;;;19.04;47.67;97111.36;621384;228;64604;-69
2023/12/09 05:00:11;;;;;;;;;;;;;;;19.05;47.59;97109.48;621421;228;62613;-69
2023/12/09 05:02:38;;;;;;;;;;;;;;;19.04;47.58;97111.36;621326;228;65336;-68
2023/12/09 05:05:06;;;;;;;;;;;;;;;19.05;47.63;97120.14;621392;228;66757;-68
2023/12/09 05:07:34;;;;;;;;;;;;;;;19.04;47.64;97119.34;621382;228;64828;-67
2023/12/09 05:10:03;;;;;;;;;;;;;;;19.03;47.60;97116.92;621327;228;66862;-67
2023/12/09 05:12:30;;;;;;;;;;;;;;;19.05;47.59;97120.14;621414;228;66651;-68
2023/12/09 05:14:59;;;;;;;;;;;;;;;19.04;47.62;97123.84;621353;228;64557;-68
2023/12/09 05:17:26;;;;;;;;;;;;;;;19.04;47.63;97134.50;621376;228;66570;-68
2023/12/09 05:19:54;;;;;;;;;;;;;;;19.05;47.61;97141.45;621373;227;66536;-68
2023/12/09 05:22:21;;;;;;;;;;;;;;;19.04;47.65;97137.16;621351;228;64753;-69
2023/12/09 05:24:49;;;;;;;;;;;;;;;19.05;47.64;97138.79;621397;228;64640;-69
2023/12/09 05:27:16;;;;;;;;;;;;;;;19.04;47.67;97140.66;621334;228;65468;-69
2023/12/09 05:29:44;;;;;;;;;;;;;;;19.03;47.64;97141.69;621373;228;63504;-69
2023/12/09 05:32:11;;;;;;;;;;;;;;;19.03;47.64;97147.02;621346;228;66779;-69
2023/12/09 05:34:39;;;;;;;;;;;;;;;19.05;47.68;97152.91;621369;228;66934;-69
2023/12/09 05:37:06;;;;;;;;;;;;;;;19.03;47.63;97155.02;623415;227;64753;-69
2023/12/09 05:39:34;;;;;;;;;;;;;;;19.04;47.64;97150.48;624947;227;67043;-69
2023/12/09 05:42:01;;;;;;;;;;;;;;;19.05;47.66;97149.44;624856;227;66795;-69
2023/12/09 05:44:29;;;;;;;;;;;;;;;19.04;47.68;97156.64;624923;227;64740;-69
2023/12/09 05:46:56;;;;;;;;;;;;;;;19.03;47.73;97159.54;624884;227;66584;-69
2023/12/09 05:49:23;;;;;;;;;;;;;;;19.04;47.72;97159.30;624871;227;66811;-69
2023/12/09 05:51:51;;;;;;;;;;;;;;;19.05;47.68;97162.77;624904;227;64561;-69
2023/12/09 05:54:19;;;;;;;;;;;;;;;19.04;47.70;97167.29;624908;227;64931;-69
2023/12/09 05:56:50;;;;;;;;;;;;;;;19.06;47.67;97175.02;624874;227;66733;-69
2023/12/09 05:59:17;;;;;;;;;;;;;;;19.03;47.62;97175.52;624891;227;64778;-69
2023/12/09 06:01:44;;;;;;;;;;;;;;;19.04;47.62;97179.78;624876;227;66720;-69
2023/12/09 06:04:12;;;;;;;;;;;;;;;19.03;47.66;97178.19;624893;227;64766;-69
2023/12/09 06:06:39;;;;;;;;;;;;;;;19.03;47.69;97186.97;624880;227;64536;-69
2023/12/09 06:09:07;;;;;;;;;;;;;;;19.03;47.68;97186.97;624902;227;66743;-69
2023/12/09 06:11:34;;;;;;;;;;;;;;;19.01;47.64;97196.27;624877;227;66617;-69
2023/12/09 06:14:02;;;;;;;;;;;;;;;19.03;47.63;97202.95;624883;227;64539;-69
2023/12/09 06:16:29;;;;;;;;;;;;;;;19.02;47.63;97197.90;624894;227;66702;-69
2023/12/09 06:18:57;;;;;;;;;;;;;;;19.03;47.59;97197.63;624851;227;64779;-69
2023/12/09 06:21:25;;;;;;;;;;;;;;;19.03;47.58;97199.49;624883;227;63565;-69
2023/12/09 06:23:53;;;;;;;;;;;;;;;19.02;47.55;97209.35;624873;227;64716;-69
2023/12/09 06:26:21;;;;;;;;;;;;;;;19.03;47.54;97218.14;624867;227;64641;-69
2023/12/09 06:28:48;;;;;;;;;;;;;;;19.02;47.57;97216.55;624923;227;64737;-69
2023/12/09 06:31:16;;;;;;;;;;;;;;;19.02;47.56;97211.22;624847;227;67026;-69
2023/12/09 06:33:43;;;;;;;;;;;;;;;19.02;47.54;97214.67;624887;227;66428;-69
2023/12/09 06:36:11;;;;;;;;;;;;;;;19.04;47.55;97222.40;624051;227;64729;-69
2023/12/09 06:38:39;;;;;;;;;;;;;;;19.04;47.47;97222.40;621366;228;66848;-68
2023/12/09 06:41:07;;;;;;;;;;;;;;;19.00;47.51;97214.12;621364;228;64981;-67
2023/12/09 06:43:35;;;;;;;;;;;;;;;19.02;47.52;97221.88;621386;227;62634;-69
2023/12/09 06:46:02;;;;;;;;;;;;;;;19.03;47.54;97223.47;621357;228;67013;-69
2023/12/09 06:48:30;;;;;;;;;;;;;;;19.03;47.56;97226.92;621406;228;66833;-69
2023/12/09 06:50:57;;;;;;;;;;;;;;;19.00;47.53;97227.44;621402;228;64804;-69
2023/12/09 06:53:25;;;;;;;;;;;;;;;19.01;47.49;97226.37;621392;228;67472;-69
2023/12/09 06:55:52;;;;;;;;;;;;;;;19.03;47.47;97234.13;621451;228;64343;-69
2023/12/09 06:58:20;;;;;;;;;;;;;;;19.02;47.54;97235.19;621398;228;62599;-69
2023/12/09 07:00:48;;;;;;;;;;;;;;;19.03;47.48;97234.13;621372;228;67693;-69
2023/12/09 07:03:15;;;;;;;;;;;;;;;19.02;47.49;97235.19;621404;228;66814;-69
2023/12/09 07:05:44;;;;;;;;;;;;;;;19.03;47.54;97242.11;621379;228;62526;-69
2023/12/09 07:08:11;;;;;;;;;;;;;;;19.02;47.47;97243.17;621434;228;67307;-69
2023/12/09 07:10:39;;;;;;;;;;;;;;;19.02;47.53;97248.51;621320;228;66798;-69
2023/12/09 07:13:06;;;;;;;;;;;;;;;19.01;47.53;97241.55;621386;228;62459;-69
2023/12/09 07:15:34;;;;;;;;;;;;;;;19.02;47.52;97243.98;621401;228;64578;-69
2023/12/09 07:18:01;;;;;;;;;;;;;;;18.99;46.77;97246.35;621395;228;64699;-69
2023/12/09 07:20:28;;;;;;;;;;;;;;;18.99;46.75;97241.82;621414;228;62663;-69
2023/12/09 07:22:56;;;;;;;;;;;;;;;19.02;46.87;97249.30;621428;227;66777;-69
2023/12/09 07:25:24;;;;;;;;;;;;;;;19.03;46.84;97253.56;621362;228;64330;-69
2023/12/09 07:27:51;;;;;;;;;;;;;;;19.01;46.81;97242.35;621381;228;64591;-69
2023/12/09 07:30:20;;;;;;;;;;;;;;;19.02;46.87;97246.64;621397;226;64504;-70
2023/12/09 07:32:48;;;;;;;;;;;;;;;19.02;46.97;97243.17;621375;228;66546;-69
2023/12/09 07:35:16;;;;;;;;;;;;;;;19.03;47.05;97250.90;621449;228;64641;-69
2023/12/09 07:37:44;;;;;;;;;;;;;;;19.04;47.10;97249.03;624397;227;66662;-70
2023/12/09 07:40:12;;;;;;;;;;;;;;;19.04;47.11;97257.03;624911;227;66314;-69
2023/12/09 07:42:39;;;;;;;;;;;;;;;19.05;47.12;97250.66;624904;227;64755;-70
2023/12/09 07:45:08;;;;;;;;;;;;;;;19.05;47.13;97254.12;624908;227;64272;-69
2023/12/09 07:47:36;;;;;;;;;;;;;;;19.02;47.13;97251.97;624930;227;66481;-69
2023/12/09 07:50:03;;;;;;;;;;;;;;;19.04;47.13;97260.52;624903;227;62540;-69
2023/12/09 07:52:31;;;;;;;;;;;;;;;19.06;47.11;97261.05;624790;227;64680;-70
2023/12/09 07:54:58;;;;;;;;;;;;;;;19.07;47.09;97265.34;624879;227;65003;-69
2023/12/09 07:57:26;;;;;;;;;;;;;;;19.08;47.05;97266.14;624936;227;62428;-69
2023/12/09 07:59:53;;;;;;;;;;;;;;;19.07;47.00;97264.54;624901;227;64661;-69
2023/12/09 08:02:21;;;;;;;;;;;;;;;19.09;46.94;97267.73;624891;227;64678;-69
2023/12/09 08:04:48;;;;;;;;;;;;;;;19.07;46.93;97261.88;624853;227;62607;-70
2023/12/09 08:07:16;;;;;;;;;;;;;;;19.09;46.92;97259.73;622282;227;64863;-70
2023/12/09 08:09:43;;;;;;;;;;;;;;;19.07;46.86;97268.00;622881;227;67499;-69
2023/12/09 08:12:11;;;;;;;;;;;;;;;19.07;46.78;97269.87;623990;227;62709;-70
2023/12/09 08:14:39;;;;;;;;;;;;;;;19.08;46.75;97268.80;624056;227;66671;-70
2023/12/09 08:17:06;;;;;;;;;;;;;;;19.08;46.76;97260.81;624119;227;66653;-70
2023/12/09 08:19:34;;;;;;;;;;;;;;;19.09;46.74;97265.07;624062;227;64551;-70
2023/12/09 08:22:02;;;;;;;;;;;;;;;19.08;46.70;97264.27;624178;227;67153;-70
2023/12/09 08:24:29;;;;;;;;;;;;;;;19.08;46.71;97258.14;624073;227;64716;-70
2023/12/09 08:26:57;;;;;;;;;;;;;;;19.08;46.73;97256.28;624124;227;62661;-69
2023/12/09 08:29:25;;;;;;;;;;;;;;;19.08;46.75;97250.16;624118;227;66890;-70
2023/12/09 08:31:52;;;;;;;;;;;;;;;19.09;46.74;97251.75;624109;227;64397;-69
2023/12/09 08:34:20;;;;;;;;;;;;;;;19.07;46.74;97249.35;624116;227;65459;-70
2023/12/09 08:36:47;;;;;;;;;;;;;;;19.08;46.71;97252.81;623154;227;66925;-70
2023/12/09 08:39:17;;;;;;;;;;;;;;;19.10;46.72;97253.38;622026;228;66769;-69
2023/12/09 08:41:44;;;;;;;;;;;;;;;19.11;46.70;97246.18;621997;228;62463;-70
2023/12/09 08:44:12;;;;;;;;;;;;;;;19.10;46.70;97245.38;622006;228;66845;-70
2023/12/09 08:46:40;;;;;;;;;;;;;;;19.10;46.73;97245.38;621988;228;66843;-70
2023/12/09 08:49:07;;;;;;;;;;;;;;;19.11;46.72;97240.86;622072;228;64652;-69
2023/12/09 08:51:48;;;;;;;;;;;;;;;19.11;46.70;97238.19;622030;228;66963;-70
2023/12/09 08:54:15;;;;;;;;;;;;;;;19.10;46.71;97239.23;622021;228;64454;-69
2023/12/09 08:56:43;;;;;;;;;;;;;;;19.10;46.70;97234.73;622029;228;64752;-68
2023/12/09 08:59:11;;;;;;;;;;;;;;;19.11;46.70;97236.33;621976;228;66892;-69
2023/12/09 09:01:38;;;;;;;;;;;;;;;19.10;46.68;97232.06;622086;228;63936;-68
2023/12/09 09:04:06;;;;;;;;;;;;;;;19.11;46.69;97236.33;622017;228;62785;-69
2023/12/09 09:06:33;;;;;;;;;;;;;;;19.12;46.55;97229.13;622010;228;64689;-68
2023/12/09 09:09:01;;;;;;;;;;;;;;;19.13;46.49;97230.76;621969;228;64336;-68
2023/12/09 09:11:28;;;;;;;;;;;;;;;19.12;46.48;97227.27;622064;228;64658;-69
2023/12/09 09:13:56;;;;;;;;;;;;;;;19.11;46.50;97222.20;622034;228;64296;-69
2023/12/09 09:16:23;;;;;;;;;;;;;;;19.11;46.61;97223.01;622065;228;64693;-69
2023/12/09 09:18:51;;;;;;;;;;;;;;;19.10;46.73;97218.75;622014;228;64678;-69
2023/12/09 09:21:18;;;;;;;;;;;;;;;19.12;46.88;97218.48;621998;228;66867;-68
2023/12/09 09:23:46;;;;;;;;;;;;;;;19.11;46.88;97220.34;622008;228;66869;-69
2023/12/09 09:26:13;;;;;;;;;;;;;;;19.11;46.84;97214.22;621999;228;64725;-69
2023/12/09 09:28:41;;;;;;;;;;;;;;;19.12;46.79;97215.81;622070;228;66622;-69
2023/12/09 09:31:08;;;;;;;;;;;;;;;19.11;46.69;97212.35;621979;228;66679;-68
2023/12/09 09:33:36;;;;;;;;;;;;;;;19.13;46.59;97202.25;621955;228;64862;-68
2023/12/09 09:36:05;;;;;;;;;;;;;;;19.12;46.48;97203.29;622035;227;67190;-69
2023/12/09 09:38:33;;;;;;;;;;;;;;;19.14;46.43;97206.51;623408;227;66883;-69
2023/12/09 09:41:02;;;;;;;;;;;;;;;19.15;46.35;97201.98;623487;227;62603;-69
2023/12/09 09:43:31;;;;;;;;;;;;;;;19.11;46.32;97201.70;623321;227;64505;-69
2023/12/09 09:46:01;;;;;;;;;;;;;;;19.14;46.29;97203.84;623445;227;66836;-69
2023/12/09 09:48:30;;;;;;;;;;;;;;;19.15;46.29;97200.14;623429;227;64767;-69
2023/12/09 09:50:59;;;;;;;;;;;;;;;19.15;46.23;97199.31;623423;227;66967;-69
2023/12/09 09:53:28;;;;;;;;;;;;;;;19.12;46.23;97197.96;623496;227;66633;-69
2023/12/09 09:55:56;;;;;;;;;;;;;;;19.15;46.20;97205.47;623256;227;62427;-69
2023/12/09 09:58:24;;;;;;;;;;;;;;;19.14;46.21;97197.72;623383;227;66868;-69
2023/12/09 10:00:55;;;;;;;;;;;;;;;19.14;46.20;97190.53;623445;227;66654;-69
2023/12/09 10:03:20;;;;;;;;;;;;;;;19.13;46.18;97196.13;623320;227;64569;-69
2023/12/09 10:05:48;;;;;;;;;;;;;;;19.12;46.18;97184.64;623389;227;64647;-69
2023/12/09 10:08:15;;;;;;;;;;;;;;;19.14;46.18;97193.19;623484;227;64458;-69
2023/12/09 10:10:43;;;;;;;;;;;;;;;19.13;46.17;97183.61;623420;227;62589;-69
2023/12/09 10:13:11;;;;;;;;;;;;;;;19.13;46.15;97180.14;623448;227;64178;-69
2023/12/09 10:15:39;;;;;;;;;;;;;;;19.11;46.12;97169.73;623446;227;64266;-69
2023/12/09 10:18:08;;;;;;;;;;;;;;;19.15;46.14;97170.02;623414;227;64695;-69
2023/12/09 10:20:35;;;;;;;;;;;;;;;19.15;46.12;97167.34;623286;227;67022;-69
2023/12/09 10:23:03;;;;;;;;;;;;;;;19.14;46.10;97169.22;623462;227;67006;-68
2023/12/09 10:25:31;;;;;;;;;;;;;;;19.15;46.09;97167.34;623440;227;64784;-69
2023/12/09 10:27:58;;;;;;;;;;;;;;;19.16;46.10;97174.30;623485;227;66861;-69
2023/12/09 10:30:27;;;;;;;;;;;;;;;19.14;46.09;97174.55;623443;227;66752;-69
2023/12/09 10:32:55;;;;;;;;;;;;;;;19.15;46.08;97173.50;623469;227;64771;-69
2023/12/09 10:35:23;;;;;;;;;;;;;;;19.14;46.08;97166.55;623498;227;66912;-69
2023/12/09 10:37:51;;;;;;;;;;;;;;;19.15;46.08;97170.84;622128;227;66924;-70
2023/12/09 10:40:21;;;;;;;;;;;;;;;19.16;46.06;97168.97;622069;228;64728;-69
2023/12/09 10:42:49;;;;;;;;;;;;;;;19.15;46.07;97162.02;622054;228;66525;-70
2023/12/09 10:45:16;;;;;;;;;;;;;;;19.16;46.06;97163.64;622064;228;66745;-70
2023/12/09 10:47:44;;;;;;;;;;;;;;;19.14;46.06;97163.09;622030;228;64386;-70
2023/12/09 10:50:13;;;;;;;;;;;;;;;19.15;46.05;97162.84;622006;228;64777;-69
2023/12/09 10:52:41;;;;;;;;;;;;;;;19.15;46.04;97165.52;622032;228;66903;-69
2023/12/09 10:55:08;;;;;;;;;;;;;;;19.16;46.03;97163.64;622043;228;62457;-69
2023/12/09 10:57:37;;;;;;;;;;;;;;;19.15;46.03;97168.17;622024;228;64564;-69
2023/12/09 11:00:10;;;;;;;;;;;;;;;19.15;46.03;97162.02;622054;228;66711;-69
2023/12/09 11:02:35;;;;;;;;;;;;;;;19.16;46.04;97167.11;621672;228;62396;-69
2023/12/09 11:05:03;;;;;;;;;;;;;;;19.17;46.03;97162.58;622047;228;66998;-69
2023/12/09 11:07:31;;;;;;;;;;;;;;;19.15;46.00;97162.84;622007;228;66797;-70
2023/12/09 11:09:59;;;;;;;;;;;;;;;19.16;46.00;97161.78;622013;228;62622;-70
2023/12/09 11:12:27;;;;;;;;;;;;;;;19.16;46.02;97164.44;622033;228;66465;-70
2023/12/09 11:14:55;;;;;;;;;;;;;;;19.16;46.02;97159.11;622017;228;66897;-70
2023/12/09 11:17:38;;;;;;;;;;;;;;;19.17;46.01;97159.91;622046;228;64684;-70
2023/12/09 11:20:15;;;;;;;;;;;;;;;19.16;45.99;97159.11;622056;228;66922;-70
2023/12/09 11:22:44;;;;;;;;;;;;;;;19.16;45.98;97151.13;622012;228;66878;-70
2023/12/09 11:25:14;;;;;;;;;;;;;;;19.17;45.99;97157.25;622011;228;64836;-70
2023/12/09 11:27:42;;;;;;;;;;;;;;;19.16;45.99;97151.13;622095;228;66909;-70
2023/12/09 11:30:12;;;;;;;;;;;;;;;19.16;45.99;97153.79;622048;228;64239;-70
2023/12/09 11:32:39;;;;;;;;;;;;;;;19.15;45.97;97144.20;621296;228;64523;-70
2023/12/09 11:35:07;;;;;;;;;;;;;;;19.18;45.97;97150.84;622048;228;64154;-70
2023/12/09 11:37:35;;;;;;;;;;;;;;;19.16;45.98;97142.33;623120;227;66868;-70
2023/12/09 11:40:03;;;;;;;;;;;;;;;19.14;45.98;97133.78;623519;227;64790;-70
2023/12/09 11:42:31;;;;;;;;;;;;;;;19.15;45.98;97130.05;623496;227;64303;-70
2023/12/09 11:44:59;;;;;;;;;;;;;;;19.17;45.98;97143.92;623484;227;64341;-70
2023/12/09 11:47:27;;;;;;;;;;;;;;;19.17;45.99;97136.73;623482;227;64756;-70
2023/12/09 11:49:55;;;;;;;;;;;;;;;19.18;46.00;97137.53;623444;227;66751;-70
2023/12/09 11:52:22;;;;;;;;;;;;;;;19.17;45.99;97134.07;623460;227;66848;-70
2023/12/09 11:54:51;;;;;;;;;;;;;;;19.17;45.98;97125.28;623529;227;64704;-69
2023/12/09 11:57:18;;;;;;;;;;;;;;;19.16;45.98;97126.34;623111;227;64391;-69
2023/12/09 11:59:46;;;;;;;;;;;;;;;19.18;45.97;97118.88;623448;227;64617;-69
2023/12/09 12:02:13;;;;;;;;;;;;;;;19.17;46.01;97120.75;623423;227;62626;-69
2023/12/09 12:04:41;;;;;;;;;;;;;;;19.17;45.96;97118.08;623375;227;64929;-69
2023/12/09 12:07:08;;;;;;;;;;;;;;;19.17;45.97;97120.75;623491;227;64352;-69
2023/12/09 12:09:36;;;;;;;;;;;;;;;19.18;45.96;97119.70;623443;227;62504;-69
2023/12/09 12:12:04;;;;;;;;;;;;;;;19.19;45.96;97104.52;623443;227;66739;-69
2023/12/09 12:14:36;;;;;;;;;;;;;;;19.18;45.96;97114.38;623433;227;64747;-69
2023/12/09 12:17:01;;;;;;;;;;;;;;;19.18;45.95;97102.89;623086;227;62445;-69
2023/12/09 12:19:29;;;;;;;;;;;;;;;19.19;45.95;97113.31;623530;227;66874;-69
2023/12/09 12:21:57;;;;;;;;;;;;;;;19.17;45.94;97118.08;623456;227;66785;-69
2023/12/09 12:24:25;;;;;;;;;;;;;;;19.19;45.95;97104.52;623455;227;62421;-69
2023/12/09 12:26:59;;;;;;;;;;;;;;;19.19;45.95;97105.31;623390;227;66885;-70
2023/12/09 12:29:24;;;;;;;;;;;;;;;19.19;45.95;97105.31;623079;227;64462;-70
2023/12/09 12:31:52;;;;;;;;;;;;;;;19.20;45.95;97103.45;623455;227;64592;-69
2023/12/09 12:34:25;;;;;;;;;;;;;;;19.18;45.95;97098.39;623442;227;64555;-69
2023/12/09 12:36:49;;;;;;;;;;;;;;;19.18;45.95;97103.72;622304;227;66706;-69
2023/12/09 12:39:17;;;;;;;;;;;;;;;19.17;45.95;97087.98;621997;228;64372;-69
2023/12/09 12:41:45;;;;;;;;;;;;;;;19.18;45.95;97087.73;621996;228;67102;-69
2023/12/09 12:44:12;;;;;;;;;;;;;;;19.20;45.96;97090.92;622013;228;66212;-69
2023/12/09 12:46:41;;;;;;;;;;;;;;;19.20;45.96;97084.80;622057;228;62423;-69
2023/12/09 12:49:08;;;;;;;;;;;;;;;19.20;45.96;97082.14;622026;228;66610;-69
2023/12/09 12:51:36;;;;;;;;;;;;;;;19.18;45.94;97093.06;622013;228;64384;-69